Time;durP1;ratioP1;P1;durP2;ratioP2;P2;SDS_P1;SDS_P2;PMS_P1;PMS_P2;Temp;Humidity;BMP_temperature;BMP_pressure;BME280_temperature;BME280_humidity;BME280_pressure;Samples;Min_cycle;Max_cycle;Signal;HPM_P1;HPM_P2
2022/03/17 00:00:19;;;;;;;;;;;10.00;99.90;;;;;;5025396;28;20288;-76
2022/03/17 00:02:45;;;;;;;;;;;9.90;99.90;;;;;;5023374;28;19925;-75
2022/03/17 00:05:12;;;;;;;;;;;9.90;99.90;;;;;;5025423;28;19926;-76
2022/03/17 00:07:39;;;;;;;;;;;9.80;99.90;;;;;;5006368;28;20423;-75
2022/03/17 00:10:05;;;;;;;;;;;9.90;99.90;;;;;;5017059;28;20368;-76
2022/03/17 00:12:32;;;;;;;;;;;9.90;99.90;;;;;;5021111;28;19941;-75
2022/03/17 00:14:59;;;;;;;;;;;9.80;99.90;;;;;;5027127;28;19925;-76
2022/03/17 00:17:26;;;;;;;;;;;9.90;99.90;;;;;;4996087;28;19925;-75
2022/03/17 00:19:53;;;;;;;;;;;9.80;99.90;;;;;;5020022;28;19984;-75
2022/03/17 00:22:19;;;;;;;;;;;9.80;99.90;;;;;;5009590;28;19932;-76
2022/03/17 00:24:46;;;;;;;;;;;9.80;99.90;;;;;;5021256;28;19925;-75
2022/03/17 00:27:12;;;;;;;;;;;9.80;99.90;;;;;;5013414;28;19929;-79
2022/03/17 00:29:39;;;;;;;;;;;9.80;99.90;;;;;;5020375;28;20365;-76
2022/03/17 00:32:05;;;;;;;;;;;9.70;99.90;;;;;;5019651;28;20364;-76
2022/03/17 00:34:32;;;;;;;;;;;9.70;99.90;;;;;;5026200;28;19920;-75
2022/03/17 00:36:58;;;;;;;;;;;9.70;99.90;;;;;;5018964;28;19925;-76
2022/03/17 00:39:25;;;;;;;;;;;9.70;99.90;;;;;;5010945;28;19925;-76
2022/03/17 00:41:52;;;;;;;;;;;9.70;99.90;;;;;;5021525;28;19929;-75
2022/03/17 00:44:18;;;;;;;;;;;9.70;99.90;;;;;;5023429;28;19926;-76
2022/03/17 00:46:45;;;;;;;;;;;9.60;99.90;;;;;;5005915;28;19968;-76
2022/03/17 00:49:12;;;;;;;;;;;9.60;99.90;;;;;;5031677;28;19936;-78
2022/03/17 00:51:40;;;;;;;;;;;9.60;99.90;;;;;;5025372;28;20351;-75
2022/03/17 00:54:06;;;;;;;;;;;9.60;99.90;;;;;;5029817;28;20020;-76
2022/03/17 00:56:33;;;;;;;;;;;9.60;99.90;;;;;;5025531;28;19925;-75
2022/03/17 00:58:59;;;;;;;;;;;9.60;99.90;;;;;;5027416;28;19925;-75
2022/03/17 01:01:26;;;;;;;;;;;9.60;99.90;;;;;;5028774;28;19925;-76
2022/03/17 01:03:52;;;;;;;;;;;9.50;99.90;;;;;;5021781;28;19928;-76
2022/03/17 01:06:19;;;;;;;;;;;9.60;99.90;;;;;;5027344;28;19929;-78
2022/03/17 01:08:46;;;;;;;;;;;9.60;99.90;;;;;;5013828;28;19932;-75
2022/03/17 01:11:12;;;;;;;;;;;9.60;99.90;;;;;;5019412;28;19925;-77
2022/03/17 01:13:39;;;;;;;;;;;9.60;99.90;;;;;;5005339;28;19925;-75
2022/03/17 01:16:06;;;;;;;;;;;9.60;99.90;;;;;;5017435;28;19925;-76
2022/03/17 01:18:32;;;;;;;;;;;9.60;99.90;;;;;;5007077;28;19925;-75
2022/03/17 01:20:59;;;;;;;;;;;9.50;99.90;;;;;;5021988;28;19925;-75
2022/03/17 01:23:25;;;;;;;;;;;9.50;99.90;;;;;;5010039;28;19932;-74
2022/03/17 01:25:52;;;;;;;;;;;9.50;99.90;;;;;;5026802;28;20289;-75
2022/03/17 01:28:18;;;;;;;;;;;9.50;99.90;;;;;;5026969;28;19929;-76
2022/03/17 01:30:45;;;;;;;;;;;9.50;99.90;;;;;;5020518;28;19936;-75
2022/03/17 01:33:11;;;;;;;;;;;9.50;99.90;;;;;;5021470;28;19933;-76
2022/03/17 01:35:38;;;;;;;;;;;9.50;99.90;;;;;;5022162;28;19928;-75
2022/03/17 01:38:04;;;;;;;;;;;9.50;99.90;;;;;;5023232;28;19929;-76
2022/03/17 01:40:31;;;;;;;;;;;9.50;99.90;;;;;;5025138;28;19925;-76
2022/03/17 01:42:57;;;;;;;;;;;9.50;99.90;;;;;;5007621;28;19925;-75
2022/03/17 01:45:26;;;;;;;;;;;9.40;99.90;;;;;;5022996;28;19933;-76
2022/03/17 01:47:52;;;;;;;;;;;9.50;99.90;;;;;;5029165;28;19929;-75
2022/03/17 01:50:19;;;;;;;;;;;9.50;99.90;;;;;;5020968;28;19925;-79
2022/03/17 01:52:45;;;;;;;;;;;9.50;99.90;;;;;;5012266;28;19925;-75
2022/03/17 01:55:12;;;;;;;;;;;9.50;99.90;;;;;;5029319;28;19925;-76
2022/03/17 01:57:39;;;;;;;;;;;9.50;99.90;;;;;;5023499;28;20226;-75
2022/03/17 02:00:06;;;;;;;;;;;9.50;99.90;;;;;;5020128;28;20339;-76
2022/03/17 02:02:32;;;;;;;;;;;9.50;99.90;;;;;;5020386;28;20400;-74
2022/03/17 02:05:03;;;;;;;;;;;9.40;99.90;;;;;;5026245;28;20373;-74
2022/03/17 02:07:29;;;;;;;;;;;9.50;99.90;;;;;;5011461;28;20008;-75
2022/03/17 02:09:56;;;;;;;;;;;9.50;99.90;;;;;;5022055;28;19925;-74
2022/03/17 02:15:07;;;;;;;;;;;9.50;99.90;;;;;;5016788;28;19925;-76
2022/03/17 02:17:35;;;;;;;;;;;9.50;99.90;;;;;;5021826;28;19929;-76
2022/03/17 02:20:01;;;;;;;;;;;9.50;99.90;;;;;;5024989;28;20014;-74
2022/03/17 02:22:28;;;;;;;;;;;9.50;99.90;;;;;;5024494;28;19925;-76
2022/03/17 02:27:41;;;;;;;;;;;9.40;99.90;;;;;;5021739;28;19973;-75
2022/03/17 02:30:07;;;;;;;;;;;9.50;99.90;;;;;;5019544;28;19933;-75
2022/03/17 02:32:34;;;;;;;;;;;9.50;99.90;;;;;;5017823;28;19926;-75
2022/03/17 02:35:00;;;;;;;;;;;9.50;99.90;;;;;;5022052;28;19925;-75
2022/03/17 02:37:27;;;;;;;;;;;9.50;99.90;;;;;;5028706;28;19949;-75
2022/03/17 02:39:53;;;;;;;;;;;9.50;99.90;;;;;;5020617;28;20300;-75
2022/03/17 02:42:20;;;;;;;;;;;9.50;99.90;;;;;;5027933;28;20295;-76
2022/03/17 02:44:47;;;;;;;;;;;9.50;99.90;;;;;;5028100;28;19925;-75
2022/03/17 02:47:13;;;;;;;;;;;9.50;99.90;;;;;;5028261;28;19929;-75
2022/03/17 02:49:40;;;;;;;;;;;9.50;99.90;;;;;;5024303;28;19925;-75
2022/03/17 02:52:07;;;;;;;;;;;9.40;99.90;;;;;;5032907;28;19925;-74
2022/03/17 02:54:34;;;;;;;;;;;9.40;99.90;;;;;;5019869;28;19931;-76
2022/03/17 02:57:00;;;;;;;;;;;9.40;99.90;;;;;;5027477;28;19929;-75
2022/03/17 02:59:27;;;;;;;;;;;9.40;99.90;;;;;;5020492;28;19925;-75
2022/03/17 03:01:53;;;;;;;;;;;9.40;99.90;;;;;;5032032;28;20003;-75
2022/03/17 03:04:20;;;;;;;;;;;9.40;99.90;;;;;;5023196;28;19925;-75
2022/03/17 03:06:46;;;;;;;;;;;9.40;99.90;;;;;;5029208;28;19925;-75
2022/03/17 03:09:13;;;;;;;;;;;9.40;99.90;;;;;;5028301;28;19926;-75
2022/03/17 03:11:40;;;;;;;;;;;9.50;99.90;;;;;;5000937;28;19968;-75
2022/03/17 03:14:07;;;;;;;;;;;9.60;99.90;;;;;;5017177;28;19926;-74
2022/03/17 03:16:33;;;;;;;;;;;9.60;99.90;;;;;;5025885;28;19932;-75
2022/03/17 03:19:00;;;;;;;;;;;9.60;99.90;;;;;;5027518;28;19934;-75
2022/03/17 03:21:27;;;;;;;;;;;9.60;99.90;;;;;;5029945;28;19925;-79
2022/03/17 03:23:53;;;;;;;;;;;9.70;99.90;;;;;;5015828;28;19936;-74
2022/03/17 03:26:20;;;;;;;;;;;9.70;99.90;;;;;;5029719;28;19933;-76
2022/03/17 03:28:46;;;;;;;;;;;9.60;99.90;;;;;;5015839;28;20293;-76
2022/03/17 03:31:13;;;;;;;;;;;9.70;99.90;;;;;;5021928;28;20257;-76
2022/03/17 03:33:39;;;;;;;;;;;9.60;99.90;;;;;;5025531;28;19925;-76
2022/03/17 03:38:51;;;;;;;;;;;9.60;99.90;;;;;;5023053;28;19933;-75
2022/03/17 03:41:17;;;;;;;;;;;9.60;99.90;;;;;;5015686;28;19925;-76
2022/03/17 03:43:44;;;;;;;;;;;9.60;99.90;;;;;;5028809;28;19925;-76
2022/03/17 03:46:10;;;;;;;;;;;9.60;99.90;;;;;;5016963;28;19926;-75
2022/03/17 03:48:38;;;;;;;;;;;9.60;99.90;;;;;;5026410;28;19932;-74
2022/03/17 03:51:05;;;;;;;;;;;9.60;99.90;;;;;;5021172;28;19934;-76
2022/03/17 03:56:12;;;;;;;;;;;9.60;99.90;;;;;;5023673;28;20333;-77
2022/03/17 03:58:38;;;;;;;;;;;9.60;99.90;;;;;;5023203;28;19926;-76
2022/03/17 04:01:05;;;;;;;;;;;9.50;99.90;;;;;;5025013;28;19929;-75
2022/03/17 04:03:32;;;;;;;;;;;9.60;99.90;;;;;;5030569;28;19929;-76
2022/03/17 04:05:58;;;;;;;;;;;9.60;99.90;;;;;;5017659;28;19929;-75
2022/03/17 04:08:25;;;;;;;;;;;9.60;99.90;;;;;;5024833;28;20261;-76
2022/03/17 04:10:51;;;;;;;;;;;9.60;99.90;;;;;;5020649;28;19925;-75
2022/03/17 04:13:18;;;;;;;;;;;9.50;99.90;;;;;;5026967;28;19925;-76
2022/03/17 04:15:44;;;;;;;;;;;9.50;99.90;;;;;;5012859;28;20403;-75
2022/03/17 04:18:11;;;;;;;;;;;9.50;99.90;;;;;;5028300;28;19925;-76
2022/03/17 04:20:37;;;;;;;;;;;9.50;99.90;;;;;;5022316;28;20004;-76
2022/03/17 04:23:04;;;;;;;;;;;9.50;99.90;;;;;;5027821;28;19929;-75
2022/03/17 04:25:30;;;;;;;;;;;9.50;99.90;;;;;;5025032;28;19925;-78
2022/03/17 04:27:57;;;;;;;;;;;9.50;99.90;;;;;;5028049;28;19936;-75
2022/03/17 04:30:23;;;;;;;;;;;9.40;99.90;;;;;;5031142;28;19932;-76
2022/03/17 04:32:50;;;;;;;;;;;9.50;99.90;;;;;;5015985;28;19922;-75
2022/03/17 04:35:16;;;;;;;;;;;9.50;99.90;;;;;;5021127;28;19925;-76
2022/03/17 04:37:45;;;;;;;;;;;9.50;99.90;;;;;;5021068;28;20385;-75
2022/03/17 04:40:12;;;;;;;;;;;9.50;99.90;;;;;;5028938;28;19932;-75
2022/03/17 04:42:38;;;;;;;;;;;9.50;99.90;;;;;;4995350;28;19926;-76
2022/03/17 04:45:05;;;;;;;;;;;9.60;99.90;;;;;;5001506;28;19983;-76
2022/03/17 04:47:31;;;;;;;;;;;9.60;99.90;;;;;;5013149;28;19936;-78
2022/03/17 04:49:58;;;;;;;;;;;9.50;99.90;;;;;;5022175;28;19925;-75
2022/03/17 04:55:08;;;;;;;;;;;9.50;99.90;;;;;;5018350;28;19925;-76
2022/03/17 04:57:35;;;;;;;;;;;9.50;99.90;;;;;;5024695;28;19925;-76
2022/03/17 05:00:02;;;;;;;;;;;9.60;99.90;;;;;;5019415;28;20374;-76
2022/03/17 05:02:28;;;;;;;;;;;9.50;99.90;;;;;;5012185;28;20012;-75
2022/03/17 05:04:55;;;;;;;;;;;9.50;99.90;;;;;;5019672;28;20380;-76
2022/03/17 05:07:22;;;;;;;;;;;9.60;99.90;;;;;;5027117;28;19926;-75
2022/03/17 05:09:48;;;;;;;;;;;9.60;99.90;;;;;;5024011;28;19925;-76
2022/03/17 05:12:15;;;;;;;;;;;9.60;99.90;;;;;;5024118;28;19926;-76
2022/03/17 05:14:42;;;;;;;;;;;9.60;99.90;;;;;;5015525;28;19925;-75
2022/03/17 05:17:08;;;;;;;;;;;9.60;99.90;;;;;;5023911;28;19929;-76
2022/03/17 05:19:35;;;;;;;;;;;9.70;99.90;;;;;;5010003;28;19929;-77
2022/03/17 05:22:02;;;;;;;;;;;9.70;99.90;;;;;;5032073;28;19932;-75
2022/03/17 05:24:30;;;;;;;;;;;9.70;99.90;;;;;;5016976;28;19932;-75
2022/03/17 05:26:57;;;;;;;;;;;9.60;99.90;;;;;;5023531;28;20292;-75
2022/03/17 05:29:24;;;;;;;;;;;9.60;99.90;;;;;;5029059;28;19947;-75
2022/03/17 05:31:51;;;;;;;;;;;9.50;99.90;;;;;;5021757;28;19925;-75
2022/03/17 05:34:17;;;;;;;;;;;9.50;99.90;;;;;;5016051;28;20282;-75
2022/03/17 05:36:45;;;;;;;;;;;9.40;99.90;;;;;;5017581;28;19925;-75
2022/03/17 05:39:11;;;;;;;;;;;9.30;99.90;;;;;;5017898;28;19988;-75
2022/03/17 05:41:38;;;;;;;;;;;9.20;99.90;;;;;;5027286;28;19931;-75
2022/03/17 05:44:04;;;;;;;;;;;9.20;99.90;;;;;;5020870;28;19925;-75
2022/03/17 05:46:31;;;;;;;;;;;9.10;99.90;;;;;;5010919;28;19931;-75
2022/03/17 05:48:57;;;;;;;;;;;9.10;99.90;;;;;;5014409;28;19925;-76
2022/03/17 05:51:24;;;;;;;;;;;9.10;99.90;;;;;;5026836;28;19929;-75
2022/03/17 05:53:51;;;;;;;;;;;9.10;99.90;;;;;;5016758;28;19971;-75
2022/03/17 05:56:17;;;;;;;;;;;9.10;99.90;;;;;;5022438;28;19932;-75
2022/03/17 05:58:44;;;;;;;;;;;9.00;99.90;;;;;;5009576;28;19925;-74
2022/03/17 06:01:10;;;;;;;;;;;9.00;99.90;;;;;;5017306;28;19929;-73
2022/03/17 06:03:37;;;;;;;;;;;9.00;99.90;;;;;;5020360;28;19930;-77
2022/03/17 06:06:04;;;;;;;;;;;9.00;99.90;;;;;;5018437;28;19948;-75
2022/03/17 06:08:30;;;;;;;;;;;9.00;99.90;;;;;;5005935;28;20328;-75
2022/03/17 06:10:57;;;;;;;;;;;9.00;99.90;;;;;;5016042;28;19926;-75
2022/03/17 06:13:23;;;;;;;;;;;8.90;99.90;;;;;;5031668;28;19926;-75
2022/03/17 06:15:50;;;;;;;;;;;8.90;99.90;;;;;;5023502;28;19926;-75
2022/03/17 06:18:16;;;;;;;;;;;8.80;99.90;;;;;;5027077;28;19929;-76
2022/03/17 06:20:43;;;;;;;;;;;8.70;99.90;;;;;;5027263;28;20247;-75
2022/03/17 06:23:09;;;;;;;;;;;8.60;99.90;;;;;;5015952;28;19925;-74
2022/03/17 06:25:36;;;;;;;;;;;8.40;99.90;;;;;;5018196;28;19925;-75
2022/03/17 06:28:03;;;;;;;;;;;8.30;99.90;;;;;;5020742;28;19932;-75
2022/03/17 06:30:30;;;;;;;;;;;8.30;99.90;;;;;;5028041;28;20368;-75
2022/03/17 06:32:57;;;;;;;;;;;8.30;99.90;;;;;;5020849;28;20344;-74
2022/03/17 06:35:23;;;;;;;;;;;8.20;99.90;;;;;;5031848;28;19925;-74
2022/03/17 06:37:51;;;;;;;;;;;8.10;99.90;;;;;;5017004;28;19931;-75
2022/03/17 06:40:17;;;;;;;;;;;8.10;99.90;;;;;;5017728;28;19929;-75
2022/03/17 06:42:44;;;;;;;;;;;8.10;99.90;;;;;;5014179;28;19926;-74
2022/03/17 06:45:10;;;;;;;;;;;8.10;99.90;;;;;;4996923;28;19925;-74
2022/03/17 06:47:37;;;;;;;;;;;8.10;99.90;;;;;;4998855;28;19929;-78
2022/03/17 06:50:03;;;;;;;;;;;8.10;99.90;;;;;;5016675;28;19933;-76
2022/03/17 06:52:30;;;;;;;;;;;8.10;99.90;;;;;;5018128;28;19925;-75
2022/03/17 06:54:56;;;;;;;;;;;8.00;99.90;;;;;;5002179;28;19925;-75
2022/03/17 06:57:23;;;;;;;;;;;8.00;99.90;;;;;;5014031;28;19952;-77
2022/03/17 06:59:49;;;;;;;;;;;8.00;99.90;;;;;;5005729;28;20285;-75
2022/03/17 07:02:16;;;;;;;;;;;8.00;99.90;;;;;;4995911;28;21585;-75
2022/03/17 07:04:43;;;;;;;;;;;8.00;99.90;;;;;;5003662;28;20285;-77
2022/03/17 07:07:09;;;;;;;;;;;8.00;99.90;;;;;;4999068;28;19925;-75
2022/03/17 07:09:36;;;;;;;;;;;7.90;99.90;;;;;;4996778;28;20273;-75
2022/03/17 07:12:02;;;;;;;;;;;7.90;99.90;;;;;;4997206;28;20641;-74
2022/03/17 07:14:29;;;;;;;;;;;7.90;99.90;;;;;;5015758;28;19933;-75
2022/03/17 07:16:55;;;;;;;;;;;7.90;99.90;;;;;;5014708;28;20372;-74
2022/03/17 07:19:22;;;;;;;;;;;7.90;99.90;;;;;;5012990;28;21329;-75
2022/03/17 07:21:48;;;;;;;;;;;7.80;99.90;;;;;;5011184;28;20330;-76
2022/03/17 07:24:15;;;;;;;;;;;7.90;99.90;;;;;;5013570;28;20400;-74
2022/03/17 07:26:43;;;;;;;;;;;7.90;99.90;;;;;;4998993;28;20393;-77
2022/03/17 07:29:09;;;;;;;;;;;7.90;99.90;;;;;;5016201;28;20063;-75
2022/03/17 07:31:36;;;;;;;;;;;8.00;99.90;;;;;;4996637;28;20365;-75
2022/03/17 07:34:03;;;;;;;;;;;7.90;99.90;;;;;;5015764;28;20012;-75
2022/03/17 07:36:29;;;;;;;;;;;7.80;99.90;;;;;;4999948;28;20476;-75
2022/03/17 07:38:56;;;;;;;;;;;7.70;99.90;;;;;;5012873;28;19968;-74
2022/03/17 07:41:22;;;;;;;;;;;7.80;99.90;;;;;;5019672;28;19933;-76
2022/03/17 07:43:49;;;;;;;;;;;7.80;99.90;;;;;;4997754;28;19934;-76
2022/03/17 07:46:15;;;;;;;;;;;7.80;99.90;;;;;;5015271;28;19932;-75
2022/03/17 07:48:43;;;;;;;;;;;7.70;99.90;;;;;;4995910;28;19980;-75
2022/03/17 07:51:10;;;;;;;;;;;7.80;99.90;;;;;;5012477;28;20561;-76
2022/03/17 07:53:36;;;;;;;;;;;7.90;99.90;;;;;;5012945;28;19929;-75
2022/03/17 07:56:03;;;;;;;;;;;7.80;99.90;;;;;;4998754;28;20003;-74
2022/03/17 07:58:30;;;;;;;;;;;7.80;99.90;;;;;;5017016;28;19932;-75
2022/03/17 08:00:56;;;;;;;;;;;7.80;99.90;;;;;;5017075;28;19940;-75
2022/03/17 08:03:23;;;;;;;;;;;7.80;99.90;;;;;;5014675;28;19932;-75
2022/03/17 08:05:49;;;;;;;;;;;7.80;99.90;;;;;;5004123;28;19933;-76
2022/03/17 08:08:16;;;;;;;;;;;7.80;99.90;;;;;;4999289;28;20384;-76
2022/03/17 08:10:42;;;;;;;;;;;7.80;99.90;;;;;;5002623;28;20380;-75
2022/03/17 08:13:09;;;;;;;;;;;7.80;99.90;;;;;;5002816;28;19933;-75
2022/03/17 08:15:36;;;;;;;;;;;7.70;99.90;;;;;;5017315;28;19929;-75
2022/03/17 08:18:02;;;;;;;;;;;7.70;99.90;;;;;;5023511;28;19932;-76
2022/03/17 08:20:29;;;;;;;;;;;7.60;99.90;;;;;;5019285;28;20742;-76
2022/03/17 08:22:56;;;;;;;;;;;7.60;99.90;;;;;;5015862;28;19936;-76
2022/03/17 08:25:22;;;;;;;;;;;7.60;99.90;;;;;;5015716;28;19925;-76
2022/03/17 08:27:50;;;;;;;;;;;7.70;99.90;;;;;;5013752;28;19932;-78
2022/03/17 08:30:17;;;;;;;;;;;7.60;99.90;;;;;;5014598;28;19929;-77
2022/03/17 08:32:43;;;;;;;;;;;7.60;99.90;;;;;;5018863;28;19932;-76
2022/03/17 08:35:10;;;;;;;;;;;7.60;99.90;;;;;;5005541;28;19929;-76
2022/03/17 08:37:37;;;;;;;;;;;7.60;99.90;;;;;;5012923;28;20284;-76
2022/03/17 08:40:03;;;;;;;;;;;7.60;99.90;;;;;;5020657;28;19925;-76
2022/03/17 08:42:30;;;;;;;;;;;7.60;99.90;;;;;;4996755;28;19925;-78
2022/03/17 08:44:56;;;;;;;;;;;7.70;99.90;;;;;;4997592;28;19964;-77
2022/03/17 08:50:07;;;;;;;;;;;7.50;99.90;;;;;;4996359;28;19926;-77
2022/03/17 08:52:33;;;;;;;;;;;7.60;99.90;;;;;;5013457;28;19954;-77
2022/03/17 08:55:00;;;;;;;;;;;7.50;99.90;;;;;;5013799;28;19925;-76
2022/03/17 08:57:26;;;;;;;;;;;7.50;99.90;;;;;;4997288;28;19933;-77
2022/03/17 08:59:53;;;;;;;;;;;7.60;99.90;;;;;;4997073;28;20037;-78
2022/03/17 09:02:20;;;;;;;;;;;7.60;99.90;;;;;;5002006;28;19926;-77
2022/03/17 09:04:46;;;;;;;;;;;7.50;99.90;;;;;;5015406;28;19941;-75
2022/03/17 09:07:13;;;;;;;;;;;7.50;99.90;;;;;;5008641;28;19930;-76
2022/03/17 09:09:39;;;;;;;;;;;7.50;99.90;;;;;;5004462;28;19934;-76
2022/03/17 09:12:06;;;;;;;;;;;7.70;99.90;;;;;;4993236;28;19926;-77
2022/03/17 09:14:33;;;;;;;;;;;7.60;99.90;;;;;;4995544;28;20349;-77
2022/03/17 09:16:59;;;;;;;;;;;7.70;99.90;;;;;;4991433;28;19948;-78
2022/03/17 09:19:26;;;;;;;;;;;7.70;99.90;;;;;;4996789;28;20080;-78
2022/03/17 09:21:52;;;;;;;;;;;7.70;99.90;;;;;;5003298;28;19926;-80
2022/03/17 09:24:19;;;;;;;;;;;7.60;99.90;;;;;;5009734;28;19936;-77
2022/03/17 09:26:46;;;;;;;;;;;7.70;99.90;;;;;;5002930;28;19929;-78
2022/03/17 09:29:15;;;;;;;;;;;7.60;99.90;;;;;;5003387;28;20019;-76
2022/03/17 09:31:42;;;;;;;;;;;7.70;99.90;;;;;;5006106;28;20008;-81
2022/03/17 09:34:09;;;;;;;;;;;7.60;99.90;;;;;;5005090;28;20006;-82
2022/03/17 09:36:35;;;;;;;;;;;7.60;99.90;;;;;;5008779;28;19933;-81
2022/03/17 09:41:46;;;;;;;;;;;7.60;99.90;;;;;;5009174;28;19933;-78
2022/03/17 09:44:14;;;;;;;;;;;7.70;99.90;;;;;;5029890;28;19937;-78
2022/03/17 09:46:41;;;;;;;;;;;7.70;99.90;;;;;;5002443;28;19925;-78
2022/03/17 09:49:07;;;;;;;;;;;7.60;99.90;;;;;;5001086;28;19926;-78
2022/03/17 09:51:35;;;;;;;;;;;7.70;99.90;;;;;;5002434;28;20393;-78
2022/03/17 09:54:02;;;;;;;;;;;8.00;99.90;;;;;;5005921;28;20024;-79
2022/03/17 09:56:29;;;;;;;;;;;8.20;99.90;;;;;;5013708;28;19929;-79
2022/03/17 09:58:55;;;;;;;;;;;8.00;99.90;;;;;;4984074;28;19937;-81
2022/03/17 10:01:22;;;;;;;;;;;8.00;99.90;;;;;;4982666;28;19936;-80
2022/03/17 10:03:48;;;;;;;;;;;7.90;99.90;;;;;;4978283;28;19934;-79
2022/03/17 10:06:16;;;;;;;;;;;7.90;99.90;;;;;;4986512;28;20786;-79
2022/03/17 10:08:45;;;;;;;;;;;7.80;99.90;;;;;;4986290;28;19984;-78
2022/03/17 10:11:11;;;;;;;;;;;7.90;99.90;;;;;;4986752;28;19930;-79
2022/03/17 10:13:42;;;;;;;;;;;7.80;99.90;;;;;;4982917;28;19926;-80
2022/03/17 10:16:08;;;;;;;;;;;7.90;99.90;;;;;;4985303;28;19930;-79
2022/03/17 10:18:37;;;;;;;;;;;8.00;99.90;;;;;;4986036;28;19929;-79
2022/03/17 10:21:03;;;;;;;;;;;8.00;99.90;;;;;;4980783;28;20021;-79
2022/03/17 10:23:30;;;;;;;;;;;7.90;99.90;;;;;;4990880;28;19930;-81
2022/03/17 10:25:57;;;;;;;;;;;7.80;99.90;;;;;;4998679;28;19930;-80
2022/03/17 10:28:26;;;;;;;;;;;7.80;99.90;;;;;;4992015;28;19976;-79
2022/03/17 10:30:53;;;;;;;;;;;7.90;99.90;;;;;;4984985;28;19932;-79
2022/03/17 10:33:21;;;;;;;;;;;8.00;99.90;;;;;;4990465;28;19940;-79
2022/03/17 10:35:49;;;;;;;;;;;8.10;99.90;;;;;;4985618;28;20327;-79
2022/03/17 10:38:16;;;;;;;;;;;8.20;99.90;;;;;;4974852;28;19930;-79
2022/03/17 10:40:42;;;;;;;;;;;8.20;99.90;;;;;;4975683;28;20309;-79
2022/03/17 10:43:09;;;;;;;;;;;8.30;99.90;;;;;;4982632;28;20755;-78
2022/03/17 10:45:35;;;;;;;;;;;8.50;99.90;;;;;;4980202;28;19937;-79
2022/03/17 10:48:02;;;;;;;;;;;8.40;99.90;;;;;;4978737;28;19930;-79
2022/03/17 10:50:29;;;;;;;;;;;8.60;99.90;;;;;;4979569;28;19960;-79
2022/03/17 10:52:56;;;;;;;;;;;8.80;99.90;;;;;;4981515;28;19930;-80
2022/03/17 10:55:22;;;;;;;;;;;8.80;99.90;;;;;;4981108;28;19930;-79
2022/03/17 10:57:49;;;;;;;;;;;8.90;99.90;;;;;;4997344;28;20003;-81
2022/03/17 11:00:16;;;;;;;;;;;9.10;99.90;;;;;;5006456;28;19979;-79
2022/03/17 11:02:42;;;;;;;;;;;9.00;99.90;;;;;;5013913;28;19925;-80
2022/03/17 11:05:10;;;;;;;;;;;8.80;99.90;;;;;;5003373;28;19926;-79
2022/03/17 11:07:38;;;;;;;;;;;9.00;99.90;;;;;;5003155;28;20026;-78
2022/03/17 11:10:07;;;;;;;;;;;9.00;99.90;;;;;;5015958;28;19933;-79
2022/03/17 11:12:34;;;;;;;;;;;9.20;99.90;;;;;;5012884;28;19925;-79
2022/03/17 11:15:01;;;;;;;;;;;9.30;99.90;;;;;;5015020;28;21229;-81
2022/03/17 11:17:27;;;;;;;;;;;9.30;99.90;;;;;;5016114;28;19937;-79
2022/03/17 11:19:54;;;;;;;;;;;9.10;99.90;;;;;;5010821;28;20468;-79
2022/03/17 11:22:20;;;;;;;;;;;9.10;99.90;;;;;;5021201;28;19925;-80
2022/03/17 11:24:47;;;;;;;;;;;9.30;99.90;;;;;;5010496;28;19926;-79
2022/03/17 11:27:13;;;;;;;;;;;9.30;99.90;;;;;;4996125;28;19932;-79
2022/03/17 11:29:41;;;;;;;;;;;9.30;99.90;;;;;;5014457;28;19932;-79
2022/03/17 11:32:08;;;;;;;;;;;9.30;99.90;;;;;;5018066;28;20444;-79
2022/03/17 11:34:37;;;;;;;;;;;9.30;99.90;;;;;;5003926;28;19926;-79
2022/03/17 11:37:04;;;;;;;;;;;9.20;99.90;;;;;;5000143;28;19925;-80
2022/03/17 11:39:31;;;;;;;;;;;9.30;99.90;;;;;;5003376;28;19925;-78
2022/03/17 11:41:57;;;;;;;;;;;9.30;99.90;;;;;;5009665;28;19932;-79
2022/03/17 11:44:24;;;;;;;;;;;9.40;99.90;;;;;;5002537;28;20508;-79
2022/03/17 11:46:51;;;;;;;;;;;9.60;99.90;;;;;;5020992;28;19928;-79
2022/03/17 11:49:18;;;;;;;;;;;9.70;99.90;;;;;;5011110;28;20019;-78
2022/03/17 11:51:45;;;;;;;;;;;9.80;99.90;;;;;;5008217;28;20012;-78
2022/03/17 11:54:11;;;;;;;;;;;9.90;99.90;;;;;;5007291;28;19929;-79
2022/03/17 11:56:38;;;;;;;;;;;9.70;99.90;;;;;;4998815;28;19931;-77
2022/03/17 11:59:05;;;;;;;;;;;9.90;99.90;;;;;;5004011;28;19925;-82
2022/03/17 12:01:34;;;;;;;;;;;9.80;99.90;;;;;;5012517;28;19925;-79
2022/03/17 12:04:00;;;;;;;;;;;9.70;99.90;;;;;;5021840;28;19971;-79
2022/03/17 12:06:27;;;;;;;;;;;9.80;99.90;;;;;;5019070;28;19975;-79
2022/03/17 12:08:55;;;;;;;;;;;10.00;99.90;;;;;;5019807;28;20039;-79
2022/03/17 12:11:24;;;;;;;;;;;9.90;99.90;;;;;;5017023;28;19925;-78
2022/03/17 12:13:50;;;;;;;;;;;9.90;99.90;;;;;;5015155;28;19925;-79
2022/03/17 12:16:17;;;;;;;;;;;10.00;99.90;;;;;;5016643;28;19925;-80
2022/03/17 12:18:44;;;;;;;;;;;9.90;99.90;;;;;;5023925;28;19932;-78
2022/03/17 12:21:10;;;;;;;;;;;9.90;99.90;;;;;;5017958;28;19937;-80
2022/03/17 12:23:37;;;;;;;;;;;10.10;99.90;;;;;;5011695;28;19936;-82
2022/03/17 12:26:03;;;;;;;;;;;10.00;99.90;;;;;;5014370;28;20356;-82
2022/03/17 12:28:30;;;;;;;;;;;10.10;99.90;;;;;;5004960;28;19929;-82
2022/03/17 12:30:57;;;;;;;;;;;10.00;99.90;;;;;;5024455;28;19932;-82
2022/03/17 12:33:23;;;;;;;;;;;10.10;99.90;;;;;;5005283;28;19930;-82
2022/03/17 12:35:51;;;;;;;;;;;10.20;99.90;;;;;;5024668;28;20376;-79
2022/03/17 12:38:17;;;;;;;;;;;10.20;99.90;;;;;;5017710;28;19924;-79
2022/03/17 12:40:44;;;;;;;;;;;10.40;99.90;;;;;;5027312;28;19925;-79
2022/03/17 12:43:10;;;;;;;;;;;10.40;99.90;;;;;;5009870;28;20411;-80
2022/03/17 12:45:37;;;;;;;;;;;10.40;99.90;;;;;;5009925;28;19925;-79
2022/03/17 12:48:03;;;;;;;;;;;10.40;99.90;;;;;;5012941;28;19929;-80
2022/03/17 12:50:30;;;;;;;;;;;10.40;99.90;;;;;;5007061;28;20470;-79
2022/03/17 12:52:56;;;;;;;;;;;10.40;99.90;;;;;;5011210;28;19925;-79
2022/03/17 12:55:23;;;;;;;;;;;10.30;99.90;;;;;;5000453;28;19925;-81
2022/03/17 12:57:50;;;;;;;;;;;10.40;99.90;;;;;;5009714;28;19936;-79
2022/03/17 13:00:17;;;;;;;;;;;10.40;99.90;;;;;;5013905;28;20439;-79
2022/03/17 13:02:43;;;;;;;;;;;10.60;99.90;;;;;;5013612;28;20352;-80
2022/03/17 13:07:54;;;;;;;;;;;10.40;99.90;;;;;;5003437;28;19933;-80
2022/03/17 13:10:21;;;;;;;;;;;10.30;99.90;;;;;;5018192;28;19925;-79
2022/03/17 13:15:32;;;;;;;;;;;10.60;99.90;;;;;;5000622;28;20408;-82
2022/03/17 13:17:58;;;;;;;;;;;10.50;99.90;;;;;;5007919;28;19929;-80
2022/03/17 13:20:25;;;;;;;;;;;10.50;99.90;;;;;;5019889;28;20376;-80
2022/03/17 13:22:51;;;;;;;;;;;10.50;99.90;;;;;;5010294;28;20842;-80
2022/03/17 13:25:18;;;;;;;;;;;10.50;99.90;;;;;;5010411;28;19925;-80
2022/03/17 13:27:44;;;;;;;;;;;10.40;99.90;;;;;;5018627;28;19925;-79
2022/03/17 13:30:11;;;;;;;;;;;10.50;99.90;;;;;;5017570;28;19929;-83
2022/03/17 13:32:38;;;;;;;;;;;10.60;99.90;;;;;;5019801;28;20012;-80
2022/03/17 13:35:04;;;;;;;;;;;10.60;99.50;;;;;;5014799;28;19980;-80
2022/03/17 13:37:31;;;;;;;;;;;10.70;99.90;;;;;;5021267;28;19930;-79
2022/03/17 13:39:57;;;;;;;;;;;10.70;99.90;;;;;;5017334;28;19925;-79
2022/03/17 13:42:25;;;;;;;;;;;11.00;99.70;;;;;;5019071;28;20015;-82
2022/03/17 13:44:54;;;;;;;;;;;10.80;99.10;;;;;;5008178;28;19929;-79
2022/03/17 13:47:21;;;;;;;;;;;10.80;99.50;;;;;;5007626;28;19929;-79
2022/03/17 13:49:48;;;;;;;;;;;10.90;99.30;;;;;;5014175;28;19925;-80
2022/03/17 13:52:14;;;;;;;;;;;10.70;98.60;;;;;;5014755;28;19933;-80
2022/03/17 13:54:41;;;;;;;;;;;10.80;99.20;;;;;;4995562;28;19933;-80
2022/03/17 13:57:08;;;;;;;;;;;10.70;99.90;;;;;;4995673;28;20411;-79
2022/03/17 13:59:34;;;;;;;;;;;10.50;98.70;;;;;;5017017;28;19925;-80
2022/03/17 14:02:01;;;;;;;;;;;10.70;98.40;;;;;;5012335;28;19941;-80
2022/03/17 14:04:28;;;;;;;;;;;10.60;99.20;;;;;;5003389;28;19932;-80
2022/03/17 14:06:55;;;;;;;;;;;10.90;98.70;;;;;;5024664;28;19929;-82
2022/03/17 14:09:21;;;;;;;;;;;11.00;99.60;;;;;;5022598;28;19932;-78
2022/03/17 14:11:48;;;;;;;;;;;10.90;99.60;;;;;;5024670;28;19925;-79
2022/03/17 14:14:14;;;;;;;;;;;11.00;99.10;;;;;;5026135;28;19925;-83
2022/03/17 14:16:41;;;;;;;;;;;10.80;99.50;;;;;;5020938;28;19951;-80
2022/03/17 14:19:08;;;;;;;;;;;10.80;99.10;;;;;;5007005;28;19925;-79
2022/03/17 14:24:10;;;;;;;;;;;10.70;99.10;;;;;;5015914;28;19925;-82
2022/03/17 14:24:20;;;;;;;;;;;10.70;98.80;;;;;;5023239;28;19979;-80
2022/03/17 14:26:47;;;;;;;;;;;10.80;97.60;;;;;;5012935;28;19970;-79
2022/03/17 14:29:13;;;;;;;;;;;10.80;98.20;;;;;;5019076;28;20295;-79
2022/03/17 14:31:40;;;;;;;;;;;10.80;99.00;;;;;;5013211;28;20099;-79
2022/03/17 14:34:07;;;;;;;;;;;10.80;99.30;;;;;;4998981;28;19933;-79
2022/03/17 14:36:33;;;;;;;;;;;10.70;98.70;;;;;;5008665;28;19926;-80
2022/03/17 14:39:00;;;;;;;;;;;10.80;97.80;;;;;;5006109;28;20012;-80
2022/03/17 14:41:27;;;;;;;;;;;10.70;97.60;;;;;;5008655;28;19932;-79
2022/03/17 14:43:54;;;;;;;;;;;10.70;98.40;;;;;;5007319;28;19929;-80
2022/03/17 14:46:23;;;;;;;;;;;10.70;98.70;;;;;;5001513;28;20384;-80
2022/03/17 14:48:50;;;;;;;;;;;10.80;96.70;;;;;;4999201;28;20016;-80